sensor_id;sensor_type;location;lat;lon;timestamp;pressure;altitude;pressure_sealevel;temperature;humidity
69926;BME280;57217;47.286;8.530;2024-01-30T00:03:26;96696.34;;;1.46;100.00
69926;BME280;57217;47.286;8.530;2024-01-30T00:33:29;96690.88;;;1.34;100.00
69926;BME280;57217;47.286;8.530;2024-01-30T01:03:31;96696.97;;;1.16;100.00
69926;BME280;57217;47.286;8.530;2024-01-30T01:33:33;96691.38;;;1.09;100.00
69926;BME280;57217;47.286;8.530;2024-01-30T02:03:36;96681.47;;;1.11;100.00
69926;BME280;57217;47.286;8.530;2024-01-30T02:33:38;96691.50;;;1.04;100.00
69926;BME280;57217;47.286;8.530;2024-01-30T03:03:40;96669.91;;;1.03;100.00
69926;BME280;57217;47.286;8.530;2024-01-30T03:33:43;96668.75;;;0.95;100.00
69926;BME280;57217;47.286;8.530;2024-01-30T04:03:45;96662.47;;;0.83;100.00
69926;BME280;57217;47.286;8.530;2024-01-30T04:33:47;96661.97;;;0.81;100.00
69926;BME280;57217;47.286;8.530;2024-01-30T05:03:50;96670.06;;;0.66;100.00
69926;BME280;57217;47.286;8.530;2024-01-30T05:33:52;96681.25;;;0.52;100.00
69926;BME280;57217;47.286;8.530;2024-01-30T06:03:54;96687.72;;;0.55;100.00
69926;BME280;57217;47.286;8.530;2024-01-30T06:33:57;96709.66;;;0.49;100.00
69926;BME280;57217;47.286;8.530;2024-01-30T07:03:59;96728.09;;;0.66;100.00
69926;BME280;57217;47.286;8.530;2024-01-30T07:34:01;96746.75;;;0.87;100.00
69926;BME280;57217;47.286;8.530;2024-01-30T08:04:04;96761.00;;;1.31;100.00
69926;BME280;57217;47.286;8.530;2024-01-30T08:34:07;96772.41;;;2.20;100.00
69926;BME280;57217;47.286;8.530;2024-01-30T09:04:09;96769.88;;;2.82;100.00
69926;BME280;57217;47.286;8.530;2024-01-30T09:34:11;96769.66;;;3.49;100.00
69926;BME280;57217;47.286;8.530;2024-01-30T10:04:15;96778.69;;;4.90;100.00
69926;BME280;57217;47.286;8.530;2024-01-30T10:34:17;96784.97;;;5.95;100.00
69926;BME280;57217;47.286;8.530;2024-01-30T11:04:20;96752.81;;;7.58;95.94
69926;BME280;57217;47.286;8.530;2024-01-30T11:34:22;96736.03;;;8.86;93.75
69926;BME280;57217;47.286;8.530;2024-01-30T12:04:28;96709.03;;;9.95;83.55
69926;BME280;57217;47.286;8.530;2024-01-30T12:34:30;96690.59;;;11.05;77.12
69926;BME280;57217;47.286;8.530;2024-01-30T13:04:33;96689.75;;;11.24;79.03
69926;BME280;57217;47.286;8.530;2024-01-30T13:34:35;96691.53;;;11.99;72.94
69926;BME280;57217;47.286;8.530;2024-01-30T14:04:37;96694.09;;;12.63;70.17
69926;BME280;57217;47.286;8.530;2024-01-30T14:34:39;96708.81;;;12.57;70.24
69926;BME280;57217;47.286;8.530;2024-01-30T15:04:42;96722.59;;;10.74;72.45
69926;BME280;57217;47.286;8.530;2024-01-30T15:34:44;96724.97;;;8.97;89.84
69926;BME280;57217;47.286;8.530;2024-01-30T16:04:46;96737.88;;;7.86;91.43
69926;BME280;57217;47.286;8.530;2024-01-30T16:34:49;96753.84;;;7.17;97.59
69926;BME280;57217;47.286;8.530;2024-01-30T17:04:51;96761.19;;;6.66;100.00
69926;BME280;57217;47.286;8.530;2024-01-30T17:34:54;96793.53;;;6.46;100.00
69926;BME280;57217;47.286;8.530;2024-01-30T18:04:56;96820.84;;;6.32;100.00
69926;BME280;57217;47.286;8.530;2024-01-30T18:34:58;96844.47;;;6.12;100.00
69926;BME280;57217;47.286;8.530;2024-01-30T19:05:01;96847.63;;;5.96;100.00
69926;BME280;57217;47.286;8.530;2024-01-30T19:35:03;96874.41;;;5.81;100.00
69926;BME280;57217;47.286;8.530;2024-01-30T20:05:07;96871.22;;;5.29;100.00
69926;BME280;57217;47.286;8.530;2024-01-30T20:35:10;96877.63;;;4.76;100.00
69926;BME280;57217;47.286;8.530;2024-01-30T21:05:13;96876.28;;;4.61;100.00
69926;BME280;57217;47.286;8.530;2024-01-30T21:35:15;96852.50;;;4.84;100.00
69926;BME280;57217;47.286;8.530;2024-01-30T22:05:18;96852.94;;;4.94;100.00
69926;BME280;57217;47.286;8.530;2024-01-30T22:35:20;96854.00;;;5.02;100.00
69926;BME280;57217;47.286;8.530;2024-01-30T23:05:23;96876.25;;;4.70;100.00
69926;BME280;57217;47.286;8.530;2024-01-30T23:35:25;96887.34;;;4.50;100.00
